Minerva, Ohio
Current Conditions -  °F | °C
As of 8:51 PM on Sunday 21 Dec 2014 (Local Time) from KCAK Reporting Station
Few Clouds Few Clouds  
Wind Chill: 19°   Ceiling: Unl
Heat Index: 27°   Visibility: 7mi
Dew Point: 20°   Wind: 7mph
Humidity: 75%   Direction: 90°E
Pressure: 30.2"   Gusts: NA
Location:  40.73°N, 81.11°W
Report Text: KCAK 220151Z 09006KT 7SM FEW022 M03/M07 A3020 RMK AO2 SLP241 T10281067
Loading
Personal Weather Stations






























Interactive Weather Map New forecast layout! Learn more

10-Day Weather Forecast

Advertisements
Track Severe Weather on mobile